Time;durP1;ratioP1;P1;durP2;ratioP2;P2;SDS_P1;SDS_P2;PMS_P1;PMS_P2;Temp;Humidity;BMP_temperature;BMP_pressure;BME280_temperature;BME280_humidity;BME280_pressure;Samples;Min_cycle;Max_cycle;Signal;HPM_P1;HPM_P2
2023/08/01 00:02:14;;;;;;;8.45;6.10;;;;;;;-144.73;100.00;54684.78;4974888;28;20114;-73
2023/08/01 00:04:39;;;;;;;9.05;5.10;;;;;;;-144.73;100.00;54670.44;5034001;28;20116;-74
2023/08/01 00:07:04;;;;;;;8.90;5.53;;;;;;;-144.73;100.00;54670.44;4981763;28;20039;-74
2023/08/01 00:09:30;;;;;;;7.63;5.85;;;;;;;-144.73;100.00;54670.44;4988269;28;20393;-74
2023/08/01 00:11:55;;;;;;;9.63;6.70;;;;;;;-144.73;100.00;54649.91;4942040;28;20070;-74
2023/08/01 00:14:24;;;;;;;11.57;7.78;;;;;;;-144.73;100.00;54674.53;4951100;28;20161;-74
2023/08/01 00:16:50;;;;;;;13.27;7.07;;;;;;;-144.73;100.00;54654.00;4950832;28;20453;-74
2023/08/01 00:19:15;;;;;;;8.18;5.78;;;;;;;-144.73;100.00;54645.78;4987360;28;20017;-73
2023/08/01 00:21:40;;;;;;;12.48;6.45;;;;;;;-144.73;100.00;54649.91;4976025;28;20057;-73
2023/08/01 00:24:07;;;;;;;9.40;6.72;;;;;;;-144.73;100.00;54625.28;4964159;28;20027;-73
2023/08/01 00:26:33;;;;;;;6.10;4.13;;;;;;;-144.73;100.00;54658.13;4944839;28;20043;-74
2023/08/01 00:28:58;;;;;;;6.25;3.58;;;;;;;-144.73;100.00;54641.69;4976340;28;20021;-73
2023/08/01 00:31:23;;;;;;;9.98;3.97;;;;;;;-144.73;100.00;54625.28;4964091;28;20031;-73
2023/08/01 00:33:49;;;;;;;5.18;3.78;;;;;;;-144.73;100.00;54670.44;5014411;28;20079;-73
2023/08/01 00:36:14;;;;;;;7.30;3.60;;;;;;;-144.73;100.00;54641.69;4998550;28;20086;-73
2023/08/01 00:38:41;;;;;;;6.43;3.88;;;;;;;-144.73;100.00;54641.69;4942986;28;20075;-74
2023/08/01 00:41:07;;;;;;;9.32;4.68;;;;;;;-144.73;100.00;54670.44;4969339;28;20035;-74
2023/08/01 00:43:32;;;;;;;7.70;4.95;;;;;;;-144.73;100.00;54637.59;4941235;28;1176042;-74
2023/08/01 00:46:01;;;;;;;6.88;5.00;;;;;;;-144.73;100.00;54612.97;5005362;28;20145;-74
2023/08/01 00:48:27;;;;;;;5.78;4.68;;;;;;;-144.73;100.00;54629.38;4994789;28;20054;-74
2023/08/01 00:50:52;;;;;;;8.02;4.90;;;;;;;-144.73;100.00;54641.69;4982411;28;20032;-74
2023/08/01 00:53:19;;;;;;;9.75;4.45;;;;;;;-144.73;100.00;54635.53;4944222;28;20020;-74
2023/08/01 00:55:44;;;;;;;9.30;6.18;;;;;;;-144.73;100.00;54649.91;4957195;28;20079;-74
2023/08/01 00:58:10;;;;;;;9.10;5.65;;;;;;;-144.73;100.00;54660.16;5022152;28;20108;-73
2023/08/01 01:00:36;;;;;;;5.95;4.55;;;;;;;-144.73;100.00;54641.69;4951489;28;20027;-73
2023/08/01 01:03:01;;;;;;;7.95;5.90;;;;;;;-144.73;100.00;54656.06;4996626;28;20028;-74
2023/08/01 01:05:33;;;;;;;6.40;5.28;;;;;;;-144.73;100.00;54690.97;4933978;28;20031;-73
2023/08/01 01:08:00;;;;;;;7.65;5.47;;;;;;;-144.73;100.00;54678.63;5025171;28;20397;-73
2023/08/01 01:10:25;;;;;;;10.48;5.40;;;;;;;-144.73;100.00;54658.13;4965912;28;20069;-73
2023/08/01 01:12:50;;;;;;;7.25;5.18;;;;;;;-144.73;100.00;54678.63;4973446;28;20036;-72
2023/08/01 01:15:16;;;;;;;9.90;6.38;;;;;;;-144.73;100.00;54617.06;5006639;28;20032;-72
2023/08/01 01:17:41;;;;;;;12.27;6.95;;;;;;;-144.73;100.00;54674.53;4965901;28;20045;-73
2023/08/01 01:20:07;;;;;;;8.85;5.60;;;;;;;-144.73;100.00;54695.06;4973899;28;20023;-72
2023/08/01 01:22:33;;;;;;;10.55;6.70;;;;;;;-144.73;100.00;54678.63;5015624;28;20037;-72
2023/08/01 01:25:01;;;;;;;7.70;6.68;;;;;;;-144.73;100.00;54641.69;5033008;28;20096;-72
2023/08/01 01:27:27;;;;;;;13.10;7.93;;;;;;;-144.73;100.00;54670.44;4971247;28;20031;-72
2023/08/01 01:29:54;;;;;;;12.45;7.53;;;;;;;-144.73;100.00;54645.78;4940147;28;20020;-72
2023/08/01 01:32:20;;;;;;;8.38;6.68;;;;;;;-144.73;100.00;54670.44;4983900;28;20031;-72
2023/08/01 01:34:46;;;;;;;16.88;7.05;;;;;;;-144.73;100.00;54637.59;4950120;28;20031;-73
2023/08/01 01:37:11;;;;;;;13.32;8.02;;;;;;;-144.73;100.00;54662.22;4966175;28;20118;-73
2023/08/01 01:39:36;;;;;;;13.70;7.85;;;;;;;-144.73;100.00;54641.69;4955042;28;20058;-74
2023/08/01 01:42:01;;;;;;;12.70;8.57;;;;;;;-144.73;100.00;54686.84;4932940;28;20039;-73
2023/08/01 01:44:27;;;;;;;15.05;7.82;;;;;;;-144.73;100.00;54658.13;4932784;28;20057;-74
2023/08/01 01:46:53;;;;;;;14.32;8.23;;;;;;;-144.73;100.00;54641.69;4933752;28;20042;-74
2023/08/01 01:49:18;;;;;;;17.50;9.50;;;;;;;-144.73;100.00;54617.06;4932024;28;20073;-74
2023/08/01 01:51:43;;;;;;;13.30;8.63;;;;;;;-144.73;100.00;54678.63;4932604;28;20092;-74
2023/08/01 01:54:09;;;;;;;14.02;8.93;;;;;;;-144.73;100.00;54608.84;4937581;28;20023;-74
2023/08/01 01:56:35;;;;;;;18.20;10.27;;;;;;;-144.73;100.00;54637.59;4954355;28;20031;-74
2023/08/01 01:59:01;;;;;;;13.40;9.80;;;;;;;-144.73;100.00;54645.78;4937982;28;20026;-74
2023/08/01 02:01:27;;;;;;;12.45;9.10;;;;;;;-144.73;100.00;54662.22;4985173;28;20037;-74
2023/08/01 02:03:52;;;;;;;21.10;11.57;;;;;;;-144.73;100.00;54699.16;4995583;28;20029;-74
2023/08/01 02:06:17;;;;;;;13.15;8.65;;;;;;;-144.73;100.00;54678.63;5029400;28;20021;-74
2023/08/01 02:08:43;;;;;;;17.42;10.98;;;;;;;-144.73;100.00;54693.00;4977490;28;20027;-74
2023/08/01 02:11:08;;;;;;;15.48;10.50;;;;;;;-144.73;100.00;54658.13;5013630;28;20402;-74
2023/08/01 02:13:34;;;;;;;20.02;11.45;;;;;;;-144.73;100.00;54654.00;5006156;28;20077;-74
2023/08/01 02:15:59;;;;;;;16.88;11.38;;;;;;;-144.73;100.00;54678.63;4939655;28;20063;-74
2023/08/01 02:18:25;;;;;;;16.25;9.57;;;;;;;-144.73;100.00;54625.28;4981150;28;20087;-74
2023/08/01 02:20:50;;;;;;;20.25;11.25;;;;;;;-144.73;100.00;54654.00;4934957;28;20050;-74
2023/08/01 02:23:16;;;;;;;16.10;10.95;;;;;;;-144.73;100.00;54639.63;4952773;28;20016;-75
2023/08/01 02:25:41;;;;;;;15.02;9.63;;;;;;;-144.73;100.00;54686.84;4934888;28;20020;-74
2023/08/01 02:28:07;;;;;;;23.15;11.07;;;;;;;-144.73;100.00;54670.44;4931950;28;20061;-74
2023/08/01 02:30:33;;;;;;;22.65;12.27;;;;;;;-144.73;100.00;54637.59;4988440;28;20064;-74
2023/08/01 02:32:58;;;;;;;25.75;12.18;;;;;;;-144.73;100.00;54647.84;4990291;28;20362;-74
2023/08/01 02:35:24;;;;;;;19.30;12.05;;;;;;;-144.73;100.00;54674.53;5000942;28;20188;-74
2023/08/01 02:37:49;;;;;;;18.45;11.57;;;;;;;-144.73;100.00;54678.63;4976810;28;20040;-73
2023/08/01 02:40:14;;;;;;;19.25;12.15;;;;;;;-144.73;100.00;54637.59;4946007;28;20028;-73
2023/08/01 02:42:40;;;;;;;25.73;13.75;;;;;;;-144.73;100.00;54641.69;4955821;28;20037;-73
2023/08/01 02:45:06;;;;;;;18.15;12.52;;;;;;;-144.73;100.00;54629.38;4969310;28;20106;-73
2023/08/01 02:47:31;;;;;;;21.77;15.15;;;;;;;-144.73;100.00;54684.78;4972332;28;20038;-73
2023/08/01 02:49:56;;;;;;;19.00;13.52;;;;;;;-144.73;100.00;54649.91;4981729;28;20464;-74
2023/08/01 02:52:22;;;;;;;21.38;14.43;;;;;;;-144.73;100.00;54649.91;4940820;28;20089;-74
2023/08/01 02:54:47;;;;;;;22.02;14.15;;;;;;;-144.73;100.00;54670.44;4973250;28;20023;-74
2023/08/01 02:57:12;;;;;;;21.27;14.50;;;;;;;-144.73;100.00;54674.53;5013589;28;20120;-75
2023/08/01 02:59:37;;;;;;;19.35;12.88;;;;;;;-144.73;100.00;54662.22;4932898;28;20039;-76
2023/08/01 03:02:03;;;;;;;23.45;14.75;;;;;;;-144.73;100.00;54654.00;4933185;28;20039;-77
2023/08/01 03:04:28;;;;;;;27.40;16.10;;;;;;;-144.73;100.00;54612.97;4949024;28;20037;-76
2023/08/01 03:06:53;;;;;;;22.65;14.70;;;;;;;-144.73;100.00;54682.75;4934190;28;20036;-77
2023/08/01 03:09:19;;;;;;;23.65;14.40;;;;;;;-144.73;100.00;54703.28;4985082;28;20034;-77
2023/08/01 03:11:44;;;;;;;28.58;15.73;;;;;;;-144.73;100.00;54670.44;4990382;28;20411;-77
2023/08/01 03:14:09;;;;;;;26.63;16.55;;;;;;;-144.73;100.00;54637.59;4948519;28;20035;-78
2023/08/01 03:16:35;;;;;;;25.67;15.07;;;;;;;-144.73;100.00;54637.59;4972727;28;20122;-77
2023/08/01 03:19:04;;;;;;;33.45;18.23;;;;;;;-144.73;100.00;54662.22;4932827;28;20027;-77
2023/08/01 03:21:32;;;;;;;21.90;15.80;;;;;;;-144.73;100.00;54633.47;4946011;28;20043;-76
2023/08/01 03:23:57;;;;;;;22.98;15.90;;;;;;;-144.73;100.00;54651.97;5032664;28;20024;-76
2023/08/01 03:26:23;;;;;;;23.40;16.35;;;;;;;-144.73;100.00;54686.84;4972304;28;20086;-76
2023/08/01 03:28:48;;;;;;;19.92;15.15;;;;;;;-144.73;100.00;54690.97;4973623;28;20031;-76
2023/08/01 03:31:13;;;;;;;22.95;15.18;;;;;;;-144.73;100.00;54690.97;4975550;28;20028;-76
2023/08/01 03:33:39;;;;;;;28.60;18.25;;;;;;;-144.73;100.00;54670.44;5030262;28;20028;-77
2023/08/01 03:36:04;;;;;;;24.40;16.77;;;;;;;-144.73;100.00;54658.13;5011212;28;20021;-75
2023/08/01 03:38:30;;;;;;;24.73;15.50;;;;;;;-144.73;100.00;54658.13;5028843;28;20034;-76
2023/08/01 03:40:55;;;;;;;33.60;18.02;;;;;;;-144.73;100.00;54697.13;4937371;28;20069;-76
2023/08/01 03:43:23;;;;;;;26.20;16.20;;;;;;;-144.73;100.00;54670.44;4943578;28;20031;-76
2023/08/01 03:45:49;;;;;;;31.67;20.17;;;;;;;-144.73;100.00;54649.91;4984985;28;20039;-75
2023/08/01 03:48:14;;;;;;;25.35;16.50;;;;;;;-144.73;100.00;54686.84;4974891;28;20118;-76
2023/08/01 03:50:39;;;;;;;24.63;16.33;;;;;;;-144.73;100.00;54676.59;4951842;28;20039;-76
2023/08/01 03:53:05;;;;;;;29.02;16.67;;;;;;;-144.73;100.00;54662.22;5035260;28;20055;-75
2023/08/01 03:55:30;;;;;;;28.58;15.90;;;;;;;-144.73;100.00;54662.22;5006227;28;20654;-76
2023/08/01 03:57:56;;;;;;;29.95;19.30;;;;;;;-144.73;100.00;54670.44;4940174;29;20046;-76
2023/08/01 04:00:22;;;;;;;22.92;15.13;;;;;;;-144.73;100.00;54658.13;5017051;28;20021;-76
2023/08/01 04:02:47;;;;;;;26.10;16.23;;;;;;;-144.73;100.00;54658.13;4976412;28;20093;-76
2023/08/01 04:05:13;;;;;;;27.77;16.42;;;;;;;-144.73;100.00;54658.13;4939851;28;20027;-76
2023/08/01 04:07:38;;;;;;;26.05;13.40;;;;;;;-144.73;100.00;54695.06;4992235;28;20119;-76
2023/08/01 04:10:04;;;;;;;33.97;15.30;;;;;;;-144.73;100.00;54674.53;5048856;28;20112;-76
2023/08/01 04:12:32;;;;;;;26.35;15.95;;;;;;;-144.73;100.00;54617.06;5036982;28;20037;-76
2023/08/01 04:14:58;;;;;;;21.23;14.85;;;;;;;-144.73;100.00;54711.47;4967426;28;20079;-76
2023/08/01 04:17:23;;;;;;;30.52;14.02;;;;;;;-144.73;100.00;54651.97;5002682;28;20035;-75
2023/08/01 04:19:49;;;;;;;25.02;14.13;;;;;;;-144.73;100.00;54627.31;5034385;28;20050;-76
2023/08/01 04:22:14;;;;;;;31.05;13.95;;;;;;;-144.73;100.00;54641.69;5034126;28;20050;-76
2023/08/01 04:24:39;;;;;;;31.52;13.48;;;;;;;-144.73;100.00;54674.53;4950917;28;20090;-76
2023/08/01 04:27:05;;;;;;;18.90;12.73;;;;;;;-144.73;100.00;54654.00;5029385;28;20056;-76
2023/08/01 04:29:30;;;;;;;26.48;14.15;;;;;;;-144.73;100.00;54686.84;5033084;28;20019;-76
2023/08/01 04:31:56;;;;;;;33.78;13.13;;;;;;;-144.73;100.00;54703.28;4971109;28;20494;-76
2023/08/01 04:34:22;;;;;;;21.70;12.70;;;;;;;-144.73;100.00;54637.59;4939567;28;20034;-76
2023/08/01 04:36:47;;;;;;;24.10;14.48;;;;;;;-144.73;100.00;54633.47;4966747;28;20027;-76
2023/08/01 04:39:13;;;;;;;31.27;15.82;;;;;;;-144.73;100.00;54678.63;4979332;28;20035;-76
2023/08/01 04:41:38;;;;;;;28.83;15.63;;;;;;;-144.73;100.00;54637.59;4933721;28;20068;-76
2023/08/01 04:44:03;;;;;;;27.38;14.02;;;;;;;-144.73;100.00;54641.69;4934198;28;20517;-76
2023/08/01 04:46:29;;;;;;;27.25;15.18;;;;;;;-144.73;100.00;54621.16;4950376;28;20035;-76
2023/08/01 04:48:54;;;;;;;35.13;16.67;;;;;;;-144.73;100.00;54633.47;4981769;28;20094;-76
2023/08/01 04:51:19;;;;;;;24.08;13.27;;;;;;;-144.73;100.00;54658.13;4943230;28;20027;-76
2023/08/01 04:53:44;;;;;;;23.33;13.60;;;;;;;-144.73;100.00;54674.53;4996558;28;20027;-76
2023/08/01 04:56:10;;;;;;;24.52;14.65;;;;;;;-144.73;100.00;54612.97;4973749;28;20460;-76
2023/08/01 04:58:35;;;;;;;20.55;12.73;;;;;;;-144.73;100.00;54656.06;4992765;28;20029;-75
2023/08/01 05:01:00;;;;;;;24.98;14.38;;;;;;;-144.73;100.00;54625.28;4968605;28;20089;-76
2023/08/01 05:03:26;;;;;;;21.42;14.38;;;;;;;-144.73;100.00;54680.69;4961511;28;20029;-76
2023/08/01 05:05:51;;;;;;;24.60;15.18;;;;;;;-144.73;100.00;54641.69;5001991;28;20034;-76
2023/08/01 05:08:16;;;;;;;28.02;15.40;;;;;;;-144.73;100.00;54643.75;4975033;28;20021;-76
2023/08/01 05:10:41;;;;;;;20.88;13.68;;;;;;;-144.73;100.00;54670.44;4967484;28;20019;-76
2023/08/01 05:13:07;;;;;;;24.10;14.50;;;;;;;-144.73;100.00;54633.47;4940259;28;20030;-76
2023/08/01 05:15:32;;;;;;;23.52;12.73;;;;;;;-144.73;100.00;54690.97;4933119;28;20031;-75
2023/08/01 05:17:57;;;;;;;20.17;13.75;;;;;;;-144.73;100.00;54662.22;4947375;29;20062;-75
2023/08/01 05:20:23;;;;;;;27.75;12.95;;;;;;;-144.73;100.00;54629.38;5010868;28;20091;-76
2023/08/01 05:22:48;;;;;;;21.65;12.32;;;;;;;-144.73;100.00;54662.22;5024840;28;20021;-75
2023/08/01 05:25:14;;;;;;;23.42;14.68;;;;;;;-144.73;100.00;54682.75;4988606;28;20027;-75
2023/08/01 05:27:39;;;;;;;20.27;12.00;;;;;;;-144.73;100.00;54656.06;4952160;28;20075;-75
2023/08/01 05:30:05;;;;;;;20.92;11.32;;;;;;;-144.73;100.00;54670.44;5032756;28;20019;-75
2023/08/01 05:32:30;;;;;;;20.40;11.60;;;;;;;-144.73;100.00;54658.13;4973571;28;20531;-75
2023/08/01 05:34:55;;;;;;;21.67;12.60;;;;;;;-144.73;100.00;54672.47;4982270;28;20019;-76
2023/08/01 05:37:21;;;;;;;25.55;13.00;;;;;;;-144.73;100.00;54633.47;4948471;28;20096;-75
2023/08/01 05:39:46;;;;;;;29.10;13.40;;;;;;;-144.73;100.00;54645.78;4990693;28;20054;-76
2023/08/01 05:42:11;;;;;;;22.50;10.95;;;;;;;-144.73;100.00;54674.53;4965952;28;20032;-75
2023/08/01 05:44:37;;;;;;;24.75;13.18;;;;;;;-144.73;100.00;54649.91;4983695;28;20032;-75
2023/08/01 05:47:02;;;;;;;25.15;13.15;;;;;;;-144.73;100.00;54682.75;4996030;28;20027;-75
2023/08/01 05:49:29;;;;;;;24.23;12.00;;;;;;;-144.73;100.00;54629.38;4973799;28;20425;-75
2023/08/01 05:51:55;;;;;;;22.52;11.32;;;;;;;-144.73;100.00;54643.75;4932967;28;20031;-75
2023/08/01 05:54:20;;;;;;;32.80;12.20;;;;;;;-144.73;100.00;54637.59;4954733;28;20030;-75
2023/08/01 05:56:45;;;;;;;20.05;10.85;;;;;;;-144.73;100.00;54660.16;4994753;28;20157;-74
2023/08/01 05:59:11;;;;;;;20.83;11.32;;;;;;;-144.73;100.00;54649.91;4974255;28;20046;-76
2023/08/01 06:01:36;;;;;;;17.17;10.75;;;;;;;-144.73;100.00;54690.97;5021539;28;20085;-76
2023/08/01 06:04:02;;;;;;;23.10;10.90;;;;;;;-144.73;100.00;54649.91;4981104;28;20017;-73
2023/08/01 06:06:27;;;;;;;26.77;10.82;;;;;;;-144.73;100.00;54674.53;4957341;28;20031;-75
2023/08/01 06:08:53;;;;;;;17.90;9.90;;;;;;;-144.73;100.00;54625.28;4971924;28;20023;-74
2023/08/01 06:11:18;;;;;;;19.52;10.15;;;;;;;-144.73;100.00;54637.59;4942702;28;20032;-75
2023/08/01 06:13:43;;;;;;;22.75;9.18;;;;;;;-144.73;100.00;54732.00;4985172;28;20059;-75
2023/08/01 06:16:09;;;;;;;22.15;9.18;;;;;;;-144.73;100.00;54641.69;4962720;28;20298;-75
2023/08/01 06:18:35;;;;;;;27.80;8.98;;;;;;;-144.73;100.00;54645.78;4933056;28;20462;-75
2023/08/01 06:21:01;;;;;;;19.85;9.18;;;;;;;-144.73;100.00;54637.59;4932284;28;20031;-75
2023/08/01 06:23:27;;;;;;;23.30;8.75;;;;;;;-144.73;100.00;54662.22;4991862;28;20060;-74
2023/08/01 06:25:52;;;;;;;21.88;9.15;;;;;;;-144.73;100.00;54678.63;5001290;28;20048;-75
2023/08/01 06:28:17;;;;;;;20.50;8.82;;;;;;;-144.73;100.00;54678.63;4977073;28;20030;-75
2023/08/01 06:30:43;;;;;;;23.63;8.55;;;;;;;-144.73;100.00;54658.13;4991035;28;20027;-75
2023/08/01 06:33:08;;;;;;;19.85;8.82;;;;;;;-144.73;100.00;54686.84;4933261;28;20035;-75
2023/08/01 06:35:33;;;;;;;25.27;8.27;;;;;;;-144.73;100.00;54658.13;4936808;28;20034;-74
2023/08/01 06:37:59;;;;;;;20.63;8.85;;;;;;;-144.73;100.00;54629.38;4958197;28;20016;-74
2023/08/01 06:40:25;;;;;;;25.17;7.80;;;;;;;-144.73;100.00;54674.53;4938081;28;20080;-75
2023/08/01 06:42:50;;;;;;;16.73;6.97;;;;;;;-144.73;100.00;54637.59;4946046;28;20035;-75
2023/08/01 06:45:16;;;;;;;18.50;8.15;;;;;;;-144.73;100.00;54645.78;4942325;28;20034;-75
2023/08/01 06:47:41;;;;;;;14.77;7.38;;;;;;;-144.73;100.00;54676.59;4988120;28;20122;-74
2023/08/01 06:50:07;;;;;;;17.80;6.70;;;;;;;-144.73;100.00;54670.44;4938943;28;20482;-74
2023/08/01 06:52:32;;;;;;;20.40;6.22;;;;;;;-144.73;100.00;54678.63;4957645;28;20115;-75
2023/08/01 06:54:58;;;;;;;16.17;7.15;;;;;;;-144.73;100.00;54670.44;4957345;28;20025;-74
2023/08/01 06:57:23;;;;;;;19.02;6.15;;;;;;;-144.73;100.00;54625.28;4955063;28;20035;-75
2023/08/01 06:59:48;;;;;;;16.80;6.18;;;;;;;-144.73;100.00;54633.47;4944820;28;20102;-74
2023/08/01 07:02:15;;;;;;;16.83;5.70;;;;;;;-144.73;100.00;54629.38;4959018;28;20055;-75
2023/08/01 07:04:40;;;;;;;16.35;6.68;;;;;;;-144.73;100.00;54649.91;4996264;28;20035;-76
2023/08/01 07:07:06;;;;;;;11.60;5.68;;;;;;;-144.73;100.00;54656.06;4941669;28;20089;-75
2023/08/01 07:09:31;;;;;;;20.33;5.95;;;;;;;-144.73;100.00;54645.78;4952677;28;20025;-76
2023/08/01 07:11:56;;;;;;;15.95;5.13;;;;;;;-144.73;100.00;54707.38;5034446;28;20085;-76
2023/08/01 07:14:22;;;;;;;12.65;4.55;;;;;;;-144.73;100.00;54645.78;4952124;28;20068;-75
2023/08/01 07:16:47;;;;;;;15.00;4.50;;;;;;;-144.73;100.00;54674.53;4957040;28;20081;-76
2023/08/01 07:19:12;;;;;;;17.55;5.20;;;;;;;-144.73;100.00;54658.13;4936178;28;20047;-76
2023/08/01 07:21:38;;;;;;;18.27;5.07;;;;;;;-144.73;100.00;54662.22;4980028;28;20035;-75
2023/08/01 07:24:03;;;;;;;9.85;4.38;;;;;;;-144.73;100.00;54625.28;4952839;28;20019;-75
2023/08/01 07:26:29;;;;;;;13.52;4.50;;;;;;;-144.73;100.00;54654.00;4956740;28;20091;-75
2023/08/01 07:28:55;;;;;;;14.27;4.30;;;;;;;-144.73;100.00;54633.47;5003714;28;20020;-76
2023/08/01 07:31:20;;;;;;;12.25;4.47;;;;;;;-144.73;100.00;54682.75;5017483;28;20039;-76
2023/08/01 07:33:46;;;;;;;13.90;4.45;;;;;;;-144.73;100.00;54682.75;4972461;28;20060;-76
2023/08/01 07:36:12;;;;;;;12.95;5.30;;;;;;;-144.73;100.00;54672.47;4992686;28;20070;-77
2023/08/01 07:38:37;;;;;;;13.63;4.43;;;;;;;-144.73;100.00;54629.38;4937845;28;20023;-76
2023/08/01 07:41:07;;;;;;;13.10;3.95;;;;;;;-144.73;100.00;54641.69;4974393;28;20027;-76
2023/08/01 07:43:32;;;;;;;12.65;4.35;;;;;;;-144.73;100.00;54615.00;5009528;28;20051;-76
2023/08/01 07:45:59;;;;;;;16.55;4.65;;;;;;;-144.73;100.00;54633.47;4976186;28;20483;-76
2023/08/01 07:48:24;;;;;;;14.98;4.35;;;;;;;-144.73;100.00;54621.16;4952987;28;20029;-76
2023/08/01 07:50:50;;;;;;;19.10;5.13;;;;;;;-144.73;100.00;54629.38;4946210;28;20106;-76
2023/08/01 07:53:16;;;;;;;12.05;4.82;;;;;;;-144.73;100.00;54678.63;4966545;28;20073;-77
2023/08/01 07:55:41;;;;;;;13.65;4.53;;;;;;;-144.73;100.00;54621.16;4994199;28;20025;-76
2023/08/01 07:58:06;;;;;;;13.25;4.78;;;;;;;-144.73;100.00;54621.16;4937809;28;20023;-77
2023/08/01 08:00:35;;;;;;;12.68;4.30;;;;;;;-144.73;100.00;54674.53;4956413;28;20047;-76
2023/08/01 08:03:00;;;;;;;15.98;4.28;;;;;;;-144.73;100.00;54645.78;4935856;28;20035;-76
2023/08/01 08:05:26;;;;;;;10.85;4.30;;;;;;;-144.73;100.00;54604.75;4949102;28;20058;-76
2023/08/01 08:07:51;;;;;;;18.30;4.78;;;;;;;-144.73;100.00;54647.84;4944868;28;20043;-75
2023/08/01 08:10:16;;;;;;;16.13;4.63;;;;;;;-144.73;100.00;54645.78;4934791;28;20031;-76
2023/08/01 08:12:42;;;;;;;13.93;5.55;;;;;;;-144.73;100.00;54658.13;4947498;28;20043;-77
2023/08/01 08:15:07;;;;;;;11.43;4.15;;;;;;;-144.73;100.00;54651.97;4941725;28;20020;-76
2023/08/01 08:17:33;;;;;;;16.23;4.88;;;;;;;-144.73;100.00;54637.59;4979228;28;20039;-76
2023/08/01 08:19:58;;;;;;;16.55;4.70;;;;;;;-144.73;100.00;54588.31;4935071;28;20065;-76
2023/08/01 08:22:24;;;;;;;9.95;4.10;;;;;;;-144.73;100.00;54649.91;4994177;28;20031;-77
2023/08/01 08:24:49;;;;;;;16.65;4.68;;;;;;;-144.73;100.00;54590.38;4941988;28;20031;-76
2023/08/01 08:27:15;;;;;;;17.48;4.95;;;;;;;-144.73;100.00;54643.75;5012188;28;20032;-76
2023/08/01 08:29:40;;;;;;;10.05;4.25;;;;;;;-144.73;100.00;54586.28;5014720;28;20062;-77
2023/08/01 08:32:06;;;;;;;12.60;4.25;;;;;;;-144.73;100.00;54625.28;4996690;28;20059;-76
2023/08/01 08:34:32;;;;;;;12.70;5.35;;;;;;;-144.73;100.00;54637.59;4976537;28;20084;-76
2023/08/01 08:36:57;;;;;;;14.95;4.25;;;;;;;-144.73;100.00;54617.06;5007856;28;20101;-77
2023/08/01 08:39:23;;;;;;;18.42;4.93;;;;;;;-144.73;100.00;54649.91;4943980;28;20031;-77
2023/08/01 08:41:54;;;;;;;17.70;4.72;;;;;;;-144.73;100.00;54633.47;4935047;28;20046;-77
2023/08/01 08:44:20;;;;;;;10.13;4.03;;;;;;;-144.73;100.00;54629.38;4936746;28;20154;-77
2023/08/01 08:46:50;;;;;;;12.10;4.70;;;;;;;-144.73;100.00;54617.06;4939740;28;20062;-74
2023/08/01 08:49:19;;;;;;;12.27;4.88;;;;;;;-144.73;100.00;54600.63;4990782;28;20090;-74
2023/08/01 08:51:45;;;;;;;12.27;4.50;;;;;;;-144.73;100.00;54612.97;4936166;28;20043;-74
2023/08/01 08:54:12;;;;;;;9.63;4.50;;;;;;;-144.73;100.00;54627.31;4977847;28;20021;-74
2023/08/01 08:56:38;;;;;;;16.67;5.53;;;;;;;-144.73;100.00;54633.47;4993962;28;20040;-74
2023/08/01 08:59:04;;;;;;;14.00;5.22;;;;;;;-144.73;100.00;54654.00;4998729;28;20019;-74
2023/08/01 09:01:32;;;;;;;14.02;5.30;;;;;;;-144.73;100.00;54580.13;4955253;28;20050;-74
2023/08/01 09:03:57;;;;;;;19.40;5.80;;;;;;;-144.73;100.00;54639.63;4947004;28;20041;-74
2023/08/01 09:06:31;;;;;;;14.77;5.38;;;;;;;-144.73;100.00;54608.84;4956271;28;20051;-74
2023/08/01 09:09:09;;;;;;;18.13;5.25;;;;;;;-144.73;100.00;54680.69;4987858;28;20024;-73
2023/08/01 09:11:46;;;;;;;16.13;5.22;;;;;;;-144.73;100.00;54621.16;4995116;28;20096;-73
2023/08/01 09:14:12;;;;;;;15.18;4.57;;;;;;;-144.73;100.00;54641.69;4954942;28;20509;-74
2023/08/01 09:16:44;;;;;;;14.43;5.65;;;;;;;-144.73;100.00;54637.59;4948355;28;20035;-73
2023/08/01 09:19:12;;;;;;;10.02;5.40;;;;;;;-144.73;100.00;54645.78;4945905;28;20025;-73
2023/08/01 09:21:39;;;;;;;17.38;6.00;;;;;;;-144.73;100.00;54615.00;5039486;28;20082;-73
2023/08/01 09:24:15;;;;;;;23.45;6.00;;;;;;;-144.73;100.00;54625.28;4965288;28;20023;-75
2023/08/01 09:26:42;;;;;;;16.02;6.32;;;;;;;-144.73;100.00;54639.63;4974927;28;20085;-76
2023/08/01 09:29:08;;;;;;;19.10;7.55;;;;;;;-144.73;100.00;54641.69;5035662;28;20023;-76
2023/08/01 09:31:36;;;;;;;13.75;6.13;;;;;;;-144.73;100.00;54670.44;4978880;28;20045;-76
2023/08/01 09:34:06;;;;;;;13.55;6.53;;;;;;;-144.73;100.00;54608.84;4960087;28;20031;-75
2023/08/01 09:36:32;;;;;;;10.23;5.40;;;;;;;-144.73;100.00;54571.91;4967743;28;20043;-76
2023/08/01 09:39:02;;;;;;;14.88;5.95;;;;;;;-144.73;100.00;54645.78;4956231;28;20114;-76
2023/08/01 09:41:29;;;;;;;13.25;4.47;;;;;;;-144.73;100.00;54641.69;4952766;28;20115;-75
2023/08/01 09:43:55;;;;;;;8.60;4.38;;;;;;;-144.73;100.00;54645.78;4968568;28;20102;-75
2023/08/01 09:46:20;;;;;;;16.63;4.88;;;;;;;-144.73;100.00;54625.28;4974183;28;20061;-75
2023/08/01 09:48:46;;;;;;;12.50;4.28;;;;;;;-144.73;100.00;54654.00;4945237;28;20038;-75
2023/08/01 09:51:14;;;;;;;10.13;4.00;;;;;;;-144.73;100.00;54612.97;4945786;28;20060;-74
2023/08/01 09:53:56;;;;;;;7.55;4.03;;;;;;;-144.73;100.00;54592.44;4943901;28;20049;-74
2023/08/01 09:56:23;;;;;;;8.32;3.92;;;;;;;-144.73;100.00;54629.38;4961244;28;20105;-75
2023/08/01 09:58:50;;;;;;;8.45;3.50;;;;;;;-144.73;100.00;54654.00;4945344;28;20026;-74
2023/08/01 10:01:18;;;;;;;8.18;3.83;;;;;;;-144.73;100.00;54641.69;4941021;28;20035;-74
2023/08/01 10:03:48;;;;;;;9.00;4.10;;;;;;;-144.73;100.00;54610.91;4972800;28;20043;-74
2023/08/01 10:06:18;;;;;;;9.95;4.05;;;;;;;-144.73;100.00;54629.38;4945441;28;20031;-73
2023/08/01 10:08:44;;;;;;;11.13;3.78;;;;;;;-144.73;100.00;54588.31;4964016;28;20108;-73
2023/08/01 10:11:11;;;;;;;5.60;2.97;;;;;;;-144.73;100.00;54604.75;4944535;28;20038;-73
2023/08/01 10:13:37;;;;;;;8.10;3.45;;;;;;;-144.73;100.00;54588.31;4951040;28;20896;-73
2023/08/01 10:16:03;;;;;;;12.48;4.00;;;;;;;-144.73;100.00;54633.47;5038810;28;20031;-74
2023/08/01 10:18:33;;;;;;;8.00;3.13;;;;;;;-144.73;100.00;54600.63;5034708;28;20033;-74
2023/08/01 10:21:02;;;;;;;9.40;3.13;;;;;;;-144.73;100.00;54600.63;5034800;28;20432;-74
2023/08/01 10:23:27;;;;;;;5.32;2.65;;;;;;;-144.73;100.00;54629.38;4954975;28;20032;-74
2023/08/01 10:25:54;;;;;;;7.97;2.67;;;;;;;-144.73;100.00;54629.38;4966193;28;20031;-74
2023/08/01 10:28:31;;;;;;;9.35;2.78;;;;;;;-144.73;100.00;54670.44;4978010;28;20020;-74
2023/08/01 10:31:07;;;;;;;7.88;2.83;;;;;;;-144.73;100.00;54629.38;4958589;28;20035;-74
2023/08/01 10:33:33;;;;;;;8.05;2.72;;;;;;;-144.73;100.00;54617.06;4953061;28;20027;-74
2023/08/01 10:35:59;;;;;;;10.45;3.15;;;;;;;-144.73;100.00;54588.31;5041846;28;20039;-75
2023/08/01 10:38:24;;;;;;;7.05;3.17;;;;;;;-144.73;100.00;54637.59;4959840;28;20027;-75
2023/08/01 10:40:49;;;;;;;7.40;2.50;;;;;;;-144.73;100.00;54612.97;4958019;28;20031;-73
2023/08/01 10:43:22;;;;;;;5.63;2.78;;;;;;;-144.73;100.00;54612.97;4957983;28;20094;-74
2023/08/01 10:45:48;;;;;;;18.55;3.38;;;;;;;-144.73;100.00;54592.44;4945834;28;20023;-75
2023/08/01 10:48:13;;;;;;;9.27;3.25;;;;;;;-144.73;100.00;54658.13;4980896;28;21488;-74
2023/08/01 10:50:39;;;;;;;6.90;2.75;;;;;;;-144.73;100.00;54641.69;4943378;28;20085;-74
2023/08/01 10:53:09;;;;;;;8.75;2.55;;;;;;;-144.73;100.00;54641.69;4950001;28;20031;-75
2023/08/01 10:55:48;;;;;;;3.35;2.17;;;;;;;-144.73;100.00;54629.38;4979083;28;20027;-74